sensor_id;sensor_type;location;lat;lon;timestamp;temperature;humidity
22321;DHT22;11328;53.928;18.522;2023-04-24T00:02:00;16.50;99.90
22321;DHT22;11328;53.928;18.522;2023-04-24T00:04:27;16.50;99.90
22321;DHT22;11328;53.928;18.522;2023-04-24T00:06:54;16.50;99.90
22321;DHT22;11328;53.928;18.522;2023-04-24T00:09:24;16.50;99.90
22321;DHT22;11328;53.928;18.522;2023-04-24T00:11:51;16.50;99.90
22321;DHT22;11328;53.928;18.522;2023-04-24T00:14:18;16.40;99.90
22321;DHT22;11328;53.928;18.522;2023-04-24T00:16:45;16.40;99.90
22321;DHT22;11328;53.928;18.522;2023-04-24T00:19:12;16.30;99.90
22321;DHT22;11328;53.928;18.522;2023-04-24T00:21:40;16.20;99.90
22321;DHT22;11328;53.928;18.522;2023-04-24T00:24:08;16.00;99.90
22321;DHT22;11328;53.928;18.522;2023-04-24T00:26:38;15.90;99.90
22321;DHT22;11328;53.928;18.522;2023-04-24T00:29:05;15.90;99.90
22321;DHT22;11328;53.928;18.522;2023-04-24T00:31:32;15.90;99.90
22321;DHT22;11328;53.928;18.522;2023-04-24T00:34:02;15.90;99.90
22321;DHT22;11328;53.928;18.522;2023-04-24T00:36:30;15.90;99.90
22321;DHT22;11328;53.928;18.522;2023-04-24T00:38:57;15.80;99.90
22321;DHT22;11328;53.928;18.522;2023-04-24T00:41:25;15.80;99.90
22321;DHT22;11328;53.928;18.522;2023-04-24T00:43:52;15.70;99.90
22321;DHT22;11328;53.928;18.522;2023-04-24T00:46:19;15.70;99.90
22321;DHT22;11328;53.928;18.522;2023-04-24T00:48:47;15.60;99.90
22321;DHT22;11328;53.928;18.522;2023-04-24T00:51:14;15.50;99.90
22321;DHT22;11328;53.928;18.522;2023-04-24T00:53:41;15.50;99.90
22321;DHT22;11328;53.928;18.522;2023-04-24T00:56:08;15.40;99.90
22321;DHT22;11328;53.928;18.522;2023-04-24T00:58:36;15.50;99.90
22321;DHT22;11328;53.928;18.522;2023-04-24T01:01:03;15.50;99.90
22321;DHT22;11328;53.928;18.522;2023-04-24T01:03:34;15.50;99.90
22321;DHT22;11328;53.928;18.522;2023-04-24T01:06:04;15.50;99.90
22321;DHT22;11328;53.928;18.522;2023-04-24T01:08:32;15.50;99.90
22321;DHT22;11328;53.928;18.522;2023-04-24T01:11:03;15.50;99.90
22321;DHT22;11328;53.928;18.522;2023-04-24T01:13:32;15.50;99.90
22321;DHT22;11328;53.928;18.522;2023-04-24T01:16:00;15.40;99.90
22321;DHT22;11328;53.928;18.522;2023-04-24T01:18:28;15.40;99.90
22321;DHT22;11328;53.928;18.522;2023-04-24T01:20:59;15.30;99.90
22321;DHT22;11328;53.928;18.522;2023-04-24T01:23:29;15.30;99.90
22321;DHT22;11328;53.928;18.522;2023-04-24T01:25:56;15.40;99.90
22321;DHT22;11328;53.928;18.522;2023-04-24T01:28:23;15.40;99.90
22321;DHT22;11328;53.928;18.522;2023-04-24T01:30:50;15.40;99.90
22321;DHT22;11328;53.928;18.522;2023-04-24T01:33:17;15.40;99.90
22321;DHT22;11328;53.928;18.522;2023-04-24T01:35:44;15.40;99.90
22321;DHT22;11328;53.928;18.522;2023-04-24T01:38:12;15.40;99.90
22321;DHT22;11328;53.928;18.522;2023-04-24T01:40:39;15.40;99.90
22321;DHT22;11328;53.928;18.522;2023-04-24T01:43:06;15.50;99.90
22321;DHT22;11328;53.928;18.522;2023-04-24T01:45:34;15.40;99.90
22321;DHT22;11328;53.928;18.522;2023-04-24T01:48:01;15.50;99.90
22321;DHT22;11328;53.928;18.522;2023-04-24T01:50:28;15.50;99.90
22321;DHT22;11328;53.928;18.522;2023-04-24T01:52:55;15.50;99.90
22321;DHT22;11328;53.928;18.522;2023-04-24T01:55:22;15.50;99.90
22321;DHT22;11328;53.928;18.522;2023-04-24T01:57:50;15.50;99.90
22321;DHT22;11328;53.928;18.522;2023-04-24T02:00:18;15.40;99.90
22321;DHT22;11328;53.928;18.522;2023-04-24T02:02:45;15.40;99.90
22321;DHT22;11328;53.928;18.522;2023-04-24T02:05:14;15.40;99.90
22321;DHT22;11328;53.928;18.522;2023-04-24T02:07:41;15.40;99.90
22321;DHT22;11328;53.928;18.522;2023-04-24T02:10:09;15.40;99.90
22321;DHT22;11328;53.928;18.522;2023-04-24T02:12:36;15.40;99.90
22321;DHT22;11328;53.928;18.522;2023-04-24T02:15:03;15.40;99.90
22321;DHT22;11328;53.928;18.522;2023-04-24T02:17:31;15.50;99.90
22321;DHT22;11328;53.928;18.522;2023-04-24T02:19:58;15.40;99.90
22321;DHT22;11328;53.928;18.522;2023-04-24T02:22:25;15.40;99.90
22321;DHT22;11328;53.928;18.522;2023-04-24T02:24:52;15.40;99.90
22321;DHT22;11328;53.928;18.522;2023-04-24T02:27:19;15.40;99.90
22321;DHT22;11328;53.928;18.522;2023-04-24T02:29:46;15.30;99.90
22321;DHT22;11328;53.928;18.522;2023-04-24T02:32:13;15.30;99.90
22321;DHT22;11328;53.928;18.522;2023-04-24T02:34:42;15.30;99.90
22321;DHT22;11328;53.928;18.522;2023-04-24T02:37:09;15.30;99.90
22321;DHT22;11328;53.928;18.522;2023-04-24T02:39:36;15.20;99.90
22321;DHT22;11328;53.928;18.522;2023-04-24T02:42:03;15.20;99.90
22321;DHT22;11328;53.928;18.522;2023-04-24T02:44:30;15.20;99.90
22321;DHT22;11328;53.928;18.522;2023-04-24T02:46:57;15.10;99.90
22321;DHT22;11328;53.928;18.522;2023-04-24T02:49:24;15.10;99.90
22321;DHT22;11328;53.928;18.522;2023-04-24T02:51:51;15.00;99.90
22321;DHT22;11328;53.928;18.522;2023-04-24T02:54:18;14.90;99.90
22321;DHT22;11328;53.928;18.522;2023-04-24T02:56:45;14.90;99.90
22321;DHT22;11328;53.928;18.522;2023-04-24T02:59:13;14.80;99.90
22321;DHT22;11328;53.928;18.522;2023-04-24T03:01:40;14.80;99.90
22321;DHT22;11328;53.928;18.522;2023-04-24T03:04:07;14.80;99.90
22321;DHT22;11328;53.928;18.522;2023-04-24T03:06:34;14.80;99.90
22321;DHT22;11328;53.928;18.522;2023-04-24T03:09:02;14.80;99.90
22321;DHT22;11328;53.928;18.522;2023-04-24T03:11:30;14.70;99.90
22321;DHT22;11328;53.928;18.522;2023-04-24T03:13:57;14.70;99.90
22321;DHT22;11328;53.928;18.522;2023-04-24T03:16:24;14.70;99.90
22321;DHT22;11328;53.928;18.522;2023-04-24T03:18:50;14.80;99.90
22321;DHT22;11328;53.928;18.522;2023-04-24T03:21:18;14.80;99.90
22321;DHT22;11328;53.928;18.522;2023-04-24T03:23:47;14.90;99.90
22321;DHT22;11328;53.928;18.522;2023-04-24T03:26:14;14.90;99.90
22321;DHT22;11328;53.928;18.522;2023-04-24T03:28:41;14.90;99.90
22321;DHT22;11328;53.928;18.522;2023-04-24T03:31:08;14.80;99.90
22321;DHT22;11328;53.928;18.522;2023-04-24T03:33:35;14.80;99.90
22321;DHT22;11328;53.928;18.522;2023-04-24T03:36:03;14.80;99.90
22321;DHT22;11328;53.928;18.522;2023-04-24T03:38:31;14.80;99.90
22321;DHT22;11328;53.928;18.522;2023-04-24T03:40:58;14.70;99.90
22321;DHT22;11328;53.928;18.522;2023-04-24T03:43:25;14.70;99.90
22321;DHT22;11328;53.928;18.522;2023-04-24T03:45:53;14.70;99.90
22321;DHT22;11328;53.928;18.522;2023-04-24T03:48:20;14.70;99.90
22321;DHT22;11328;53.928;18.522;2023-04-24T03:50:47;14.70;99.90
22321;DHT22;11328;53.928;18.522;2023-04-24T03:53:14;14.70;99.90
22321;DHT22;11328;53.928;18.522;2023-04-24T03:55:41;14.70;99.90
22321;DHT22;11328;53.928;18.522;2023-04-24T03:58:08;14.70;99.90
22321;DHT22;11328;53.928;18.522;2023-04-24T04:00:35;14.70;99.90
22321;DHT22;11328;53.928;18.522;2023-04-24T04:03:03;14.70;99.90
22321;DHT22;11328;53.928;18.522;2023-04-24T04:05:31;14.60;99.90
22321;DHT22;11328;53.928;18.522;2023-04-24T04:07:58;14.50;99.90
22321;DHT22;11328;53.928;18.522;2023-04-24T04:10:25;14.30;99.90
22321;DHT22;11328;53.928;18.522;2023-04-24T04:12:53;14.30;99.90
22321;DHT22;11328;53.928;18.522;2023-04-24T04:15:20;14.30;99.90
22321;DHT22;11328;53.928;18.522;2023-04-24T04:17:47;14.20;99.90
22321;DHT22;11328;53.928;18.522;2023-04-24T04:20:15;14.20;99.90
22321;DHT22;11328;53.928;18.522;2023-04-24T04:22:42;14.20;99.90
22321;DHT22;11328;53.928;18.522;2023-04-24T04:25:10;14.30;99.90
22321;DHT22;11328;53.928;18.522;2023-04-24T04:27:38;14.30;99.90
22321;DHT22;11328;53.928;18.522;2023-04-24T04:30:05;14.30;99.90
22321;DHT22;11328;53.928;18.522;2023-04-24T04:32:34;14.30;99.90
22321;DHT22;11328;53.928;18.522;2023-04-24T04:35:01;14.40;99.90
22321;DHT22;11328;53.928;18.522;2023-04-24T04:37:32;14.50;99.90
22321;DHT22;11328;53.928;18.522;2023-04-24T04:40:00;14.50;99.90
22321;DHT22;11328;53.928;18.522;2023-04-24T04:42:28;14.50;99.90
22321;DHT22;11328;53.928;18.522;2023-04-24T04:44:55;14.50;99.90
22321;DHT22;11328;53.928;18.522;2023-04-24T04:47:24;14.50;99.90
22321;DHT22;11328;53.928;18.522;2023-04-24T04:49:51;14.60;99.90
22321;DHT22;11328;53.928;18.522;2023-04-24T04:52:18;14.60;99.90
22321;DHT22;11328;53.928;18.522;2023-04-24T04:54:45;14.60;99.90
22321;DHT22;11328;53.928;18.522;2023-04-24T04:57:12;14.60;99.90
22321;DHT22;11328;53.928;18.522;2023-04-24T04:59:39;14.50;99.90
22321;DHT22;11328;53.928;18.522;2023-04-24T05:02:09;14.40;99.90
22321;DHT22;11328;53.928;18.522;2023-04-24T05:04:36;14.40;99.90
22321;DHT22;11328;53.928;18.522;2023-04-24T05:07:03;14.40;99.90
22321;DHT22;11328;53.928;18.522;2023-04-24T05:09:30;14.40;99.90
22321;DHT22;11328;53.928;18.522;2023-04-24T05:11:57;14.30;99.90
22321;DHT22;11328;53.928;18.522;2023-04-24T05:14:24;14.30;99.90
22321;DHT22;11328;53.928;18.522;2023-04-24T05:16:51;14.30;99.90
22321;DHT22;11328;53.928;18.522;2023-04-24T05:19:18;14.40;99.90
22321;DHT22;11328;53.928;18.522;2023-04-24T05:21:45;14.40;99.90
22321;DHT22;11328;53.928;18.522;2023-04-24T05:24:12;14.30;99.90
22321;DHT22;11328;53.928;18.522;2023-04-24T05:26:39;14.40;99.90
22321;DHT22;11328;53.928;18.522;2023-04-24T05:29:05;14.40;99.90
22321;DHT22;11328;53.928;18.522;2023-04-24T05:31:33;14.40;99.90
22321;DHT22;11328;53.928;18.522;2023-04-24T05:34:00;14.40;99.90
22321;DHT22;11328;53.928;18.522;2023-04-24T05:36:27;14.50;99.90
22321;DHT22;11328;53.928;18.522;2023-04-24T05:38:55;14.50;99.90
22321;DHT22;11328;53.928;18.522;2023-04-24T05:41:22;14.50;99.90
22321;DHT22;11328;53.928;18.522;2023-04-24T05:43:49;14.60;99.90
22321;DHT22;11328;53.928;18.522;2023-04-24T05:46:16;14.50;99.90
22321;DHT22;11328;53.928;18.522;2023-04-24T05:48:43;14.50;99.90
22321;DHT22;11328;53.928;18.522;2023-04-24T05:51:10;14.50;99.90
22321;DHT22;11328;53.928;18.522;2023-04-24T05:53:37;14.40;99.90
22321;DHT22;11328;53.928;18.522;2023-04-24T05:56:04;14.40;99.90
22321;DHT22;11328;53.928;18.522;2023-04-24T05:58:31;14.30;99.90
22321;DHT22;11328;53.928;18.522;2023-04-24T06:00:58;14.20;99.90
22321;DHT22;11328;53.928;18.522;2023-04-24T06:03:27;14.20;99.90
22321;DHT22;11328;53.928;18.522;2023-04-24T06:05:54;14.10;99.90
22321;DHT22;11328;53.928;18.522;2023-04-24T06:08:21;14.20;99.90
22321;DHT22;11328;53.928;18.522;2023-04-24T06:10:48;14.30;99.90
22321;DHT22;11328;53.928;18.522;2023-04-24T06:13:15;14.40;99.90
22321;DHT22;11328;53.928;18.522;2023-04-24T06:15:43;14.40;99.90
22321;DHT22;11328;53.928;18.522;2023-04-24T06:18:10;14.40;99.90
22321;DHT22;11328;53.928;18.522;2023-04-24T06:20:37;14.50;99.90
22321;DHT22;11328;53.928;18.522;2023-04-24T06:23:04;14.50;99.90
22321;DHT22;11328;53.928;18.522;2023-04-24T06:25:31;14.40;99.90
22321;DHT22;11328;53.928;18.522;2023-04-24T06:27:58;14.40;99.90
22321;DHT22;11328;53.928;18.522;2023-04-24T06:30:25;14.40;99.90
22321;DHT22;11328;53.928;18.522;2023-04-24T06:32:54;14.50;99.90
22321;DHT22;11328;53.928;18.522;2023-04-24T06:35:28;14.50;99.90
22321;DHT22;11328;53.928;18.522;2023-04-24T06:37:55;14.40;99.90
22321;DHT22;11328;53.928;18.522;2023-04-24T06:40:22;14.40;99.90
22321;DHT22;11328;53.928;18.522;2023-04-24T06:42:49;14.30;99.90
22321;DHT22;11328;53.928;18.522;2023-04-24T06:45:16;14.30;99.90
22321;DHT22;11328;53.928;18.522;2023-04-24T06:47:43;14.30;99.90
22321;DHT22;11328;53.928;18.522;2023-04-24T06:50:11;14.30;99.90
22321;DHT22;11328;53.928;18.522;2023-04-24T06:52:38;14.20;99.90
22321;DHT22;11328;53.928;18.522;2023-04-24T06:55:05;14.20;99.90
22321;DHT22;11328;53.928;18.522;2023-04-24T06:57:33;14.30;99.90
22321;DHT22;11328;53.928;18.522;2023-04-24T07:00:00;14.20;99.90
22321;DHT22;11328;53.928;18.522;2023-04-24T07:02:27;14.10;99.90
22321;DHT22;11328;53.928;18.522;2023-04-24T07:04:54;14.20;99.90
22321;DHT22;11328;53.928;18.522;2023-04-24T07:07:21;14.20;99.90
22321;DHT22;11328;53.928;18.522;2023-04-24T07:09:51;14.30;99.90
22321;DHT22;11328;53.928;18.522;2023-04-24T07:12:18;14.40;99.90
22321;DHT22;11328;53.928;18.522;2023-04-24T07:14:47;14.50;99.90
22321;DHT22;11328;53.928;18.522;2023-04-24T07:17:14;14.50;99.90
22321;DHT22;11328;53.928;18.522;2023-04-24T07:19:41;14.50;99.90
22321;DHT22;11328;53.928;18.522;2023-04-24T07:22:09;14.60;99.90
22321;DHT22;11328;53.928;18.522;2023-04-24T07:24:37;14.70;99.90
22321;DHT22;11328;53.928;18.522;2023-04-24T07:27:04;14.80;99.90
22321;DHT22;11328;53.928;18.522;2023-04-24T07:29:31;14.90;99.90
22321;DHT22;11328;53.928;18.522;2023-04-24T07:31:58;15.00;99.90
22321;DHT22;11328;53.928;18.522;2023-04-24T07:34:29;15.10;99.90
22321;DHT22;11328;53.928;18.522;2023-04-24T07:36:55;15.20;99.90
22321;DHT22;11328;53.928;18.522;2023-04-24T07:39:23;15.30;99.90
22321;DHT22;11328;53.928;18.522;2023-04-24T07:41:50;15.40;99.90
22321;DHT22;11328;53.928;18.522;2023-04-24T07:44:17;15.40;99.90
22321;DHT22;11328;53.928;18.522;2023-04-24T07:46:44;15.60;99.90
22321;DHT22;11328;53.928;18.522;2023-04-24T07:49:14;15.70;99.90
22321;DHT22;11328;53.928;18.522;2023-04-24T07:51:45;15.80;99.90
22321;DHT22;11328;53.928;18.522;2023-04-24T07:54:12;15.90;99.90
22321;DHT22;11328;53.928;18.522;2023-04-24T07:56:40;16.00;99.90
22321;DHT22;11328;53.928;18.522;2023-04-24T07:59:10;16.10;99.90
22321;DHT22;11328;53.928;18.522;2023-04-24T08:01:37;16.20;99.90
22321;DHT22;11328;53.928;18.522;2023-04-24T08:04:04;16.10;99.90
22321;DHT22;11328;53.928;18.522;2023-04-24T08:06:32;16.20;99.90
22321;DHT22;11328;53.928;18.522;2023-04-24T08:09:00;16.30;99.90
22321;DHT22;11328;53.928;18.522;2023-04-24T08:11:27;16.40;99.90
22321;DHT22;11328;53.928;18.522;2023-04-24T08:13:54;16.50;99.90
22321;DHT22;11328;53.928;18.522;2023-04-24T08:16:22;16.60;99.90
22321;DHT22;11328;53.928;18.522;2023-04-24T08:18:51;16.70;99.90
22321;DHT22;11328;53.928;18.522;2023-04-24T08:21:18;16.70;99.90
22321;DHT22;11328;53.928;18.522;2023-04-24T08:23:45;16.80;99.90
22321;DHT22;11328;53.928;18.522;2023-04-24T08:26:13;16.80;99.90
22321;DHT22;11328;53.928;18.522;2023-04-24T08:28:40;16.90;99.90
22321;DHT22;11328;53.928;18.522;2023-04-24T08:31:07;17.00;99.90
22321;DHT22;11328;53.928;18.522;2023-04-24T08:33:34;17.00;99.90
22321;DHT22;11328;53.928;18.522;2023-04-24T08:36:05;17.10;99.90
22321;DHT22;11328;53.928;18.522;2023-04-24T08:38:33;17.20;99.90
22321;DHT22;11328;53.928;18.522;2023-04-24T08:41:01;17.10;99.90
22321;DHT22;11328;53.928;18.522;2023-04-24T08:43:28;17.20;99.90
22321;DHT22;11328;53.928;18.522;2023-04-24T08:45:57;17.30;99.90
22321;DHT22;11328;53.928;18.522;2023-04-24T08:48:26;17.30;99.90
22321;DHT22;11328;53.928;18.522;2023-04-24T08:50:58;17.30;99.90
22321;DHT22;11328;53.928;18.522;2023-04-24T08:53:26;17.40;99.90
22321;DHT22;11328;53.928;18.522;2023-04-24T08:55:55;17.40;99.90
22321;DHT22;11328;53.928;18.522;2023-04-24T08:58:25;17.50;99.90
22321;DHT22;11328;53.928;18.522;2023-04-24T09:00:57;17.60;99.90
22321;DHT22;11328;53.928;18.522;2023-04-24T09:03:27;17.70;99.90
22321;DHT22;11328;53.928;18.522;2023-04-24T09:05:55;17.80;99.90
22321;DHT22;11328;53.928;18.522;2023-04-24T09:08:25;17.80;99.90
22321;DHT22;11328;53.928;18.522;2023-04-24T09:10:53;17.90;99.90
22321;DHT22;11328;53.928;18.522;2023-04-24T09:13:20;17.90;99.90
22321;DHT22;11328;53.928;18.522;2023-04-24T09:15:47;18.00;99.90
22321;DHT22;11328;53.928;18.522;2023-04-24T09:18:14;18.00;99.90
22321;DHT22;11328;53.928;18.522;2023-04-24T09:21:06;18.10;99.90
22321;DHT22;11328;53.928;18.522;2023-04-24T09:23:34;18.10;99.90
22321;DHT22;11328;53.928;18.522;2023-04-24T09:26:02;18.20;99.90
22321;DHT22;11328;53.928;18.522;2023-04-24T09:28:36;18.30;99.90
22321;DHT22;11328;53.928;18.522;2023-04-24T09:31:14;18.40;99.90
22321;DHT22;11328;53.928;18.522;2023-04-24T09:33:59;18.50;99.90
22321;DHT22;11328;53.928;18.522;2023-04-24T09:36:37;18.50;99.90
22321;DHT22;11328;53.928;18.522;2023-04-24T09:39:07;18.70;99.90
22321;DHT22;11328;53.928;18.522;2023-04-24T09:44:19;19.00;99.90
22321;DHT22;11328;53.928;18.522;2023-04-24T09:46:51;19.20;99.90
22321;DHT22;11328;53.928;18.522;2023-04-24T09:49:23;19.40;99.90
22321;DHT22;11328;53.928;18.522;2023-04-24T09:52:08;19.50;99.90
22321;DHT22;11328;53.928;18.522;2023-04-24T09:54:37;19.70;99.90
22321;DHT22;11328;53.928;18.522;2023-04-24T09:57:07;19.80;99.90
22321;DHT22;11328;53.928;18.522;2023-04-24T09:59:34;19.80;99.90
22321;DHT22;11328;53.928;18.522;2023-04-24T10:02:03;19.80;99.90
22321;DHT22;11328;53.928;18.522;2023-04-24T10:04:56;19.90;99.90
22321;DHT22;11328;53.928;18.522;2023-04-24T10:07:26;19.90;99.90
22321;DHT22;11328;53.928;18.522;2023-04-24T10:09:54;19.90;99.90
22321;DHT22;11328;53.928;18.522;2023-04-24T10:12:21;20.00;99.90
22321;DHT22;11328;53.928;18.522;2023-04-24T10:14:49;20.10;99.90
22321;DHT22;11328;53.928;18.522;2023-04-24T10:17:18;20.20;99.90
22321;DHT22;11328;53.928;18.522;2023-04-24T10:19:47;20.30;99.90
22321;DHT22;11328;53.928;18.522;2023-04-24T10:22:15;20.40;99.90
22321;DHT22;11328;53.928;18.522;2023-04-24T10:24:45;20.60;99.90
22321;DHT22;11328;53.928;18.522;2023-04-24T10:27:15;20.80;99.90
22321;DHT22;11328;53.928;18.522;2023-04-24T10:29:43;20.90;99.90
22321;DHT22;11328;53.928;18.522;2023-04-24T10:32:13;21.00;99.90
22321;DHT22;11328;53.928;18.522;2023-04-24T10:34:40;20.90;99.90
22321;DHT22;11328;53.928;18.522;2023-04-24T10:37:08;20.90;99.90
22321;DHT22;11328;53.928;18.522;2023-04-24T10:39:37;20.90;99.90
22321;DHT22;11328;53.928;18.522;2023-04-24T10:42:27;20.80;99.90
22321;DHT22;11328;53.928;18.522;2023-04-24T10:44:54;20.80;99.90
22321;DHT22;11328;53.928;18.522;2023-04-24T10:47:22;20.80;99.90
22321;DHT22;11328;53.928;18.522;2023-04-24T10:49:51;20.80;99.90
22321;DHT22;11328;53.928;18.522;2023-04-24T10:52:18;20.80;99.90
22321;DHT22;11328;53.928;18.522;2023-04-24T10:54:47;20.80;99.90
22321;DHT22;11328;53.928;18.522;2023-04-24T10:59:50;20.80;99.90
22321;DHT22;11328;53.928;18.522;2023-04-24T11:02:37;20.80;99.90
22321;DHT22;11328;53.928;18.522;2023-04-24T11:05:07;20.80;99.90
22321;DHT22;11328;53.928;18.522;2023-04-24T11:10:44;21.00;99.90
22321;DHT22;11328;53.928;18.522;2023-04-24T11:13:16;21.10;99.90
22321;DHT22;11328;53.928;18.522;2023-04-24T11:21:47;21.20;99.90
22321;DHT22;11328;53.928;18.522;2023-04-24T11:27:15;21.10;99.90
22321;DHT22;11328;53.928;18.522;2023-04-24T11:34:56;21.20;99.90
22321;DHT22;11328;53.928;18.522;2023-04-24T11:37:28;21.10;99.90
22321;DHT22;11328;53.928;18.522;2023-04-24T11:40:00;21.00;99.90
22321;DHT22;11328;53.928;18.522;2023-04-24T11:42:28;21.00;99.90
22321;DHT22;11328;53.928;18.522;2023-04-24T11:44:59;21.00;99.90
22321;DHT22;11328;53.928;18.522;2023-04-24T11:47:30;20.90;99.90
22321;DHT22;11328;53.928;18.522;2023-04-24T11:50:00;21.00;99.90
22321;DHT22;11328;53.928;18.522;2023-04-24T11:52:29;20.90;99.90
22321;DHT22;11328;53.928;18.522;2023-04-24T11:54:57;21.00;99.90
22321;DHT22;11328;53.928;18.522;2023-04-24T11:57:25;21.00;99.90
22321;DHT22;11328;53.928;18.522;2023-04-24T11:59:55;21.00;99.90
22321;DHT22;11328;53.928;18.522;2023-04-24T12:02:23;21.00;99.90
22321;DHT22;11328;53.928;18.522;2023-04-24T12:04:53;20.90;99.90
22321;DHT22;11328;53.928;18.522;2023-04-24T12:07:21;21.00;99.90
22321;DHT22;11328;53.928;18.522;2023-04-24T12:09:56;21.00;99.90
22321;DHT22;11328;53.928;18.522;2023-04-24T12:12:27;21.00;99.90
22321;DHT22;11328;53.928;18.522;2023-04-24T12:14:56;21.00;99.90
22321;DHT22;11328;53.928;18.522;2023-04-24T12:17:30;21.00;99.90
22321;DHT22;11328;53.928;18.522;2023-04-24T12:20:01;21.00;99.90
22321;DHT22;11328;53.928;18.522;2023-04-24T12:25:16;21.00;99.90
22321;DHT22;11328;53.928;18.522;2023-04-24T12:27:45;21.10;99.90
22321;DHT22;11328;53.928;18.522;2023-04-24T12:30:15;21.10;99.90
22321;DHT22;11328;53.928;18.522;2023-04-24T12:32:47;21.10;99.90
22321;DHT22;11328;53.928;18.522;2023-04-24T12:35:20;21.20;99.90
22321;DHT22;11328;53.928;18.522;2023-04-24T12:37:50;21.20;99.90
22321;DHT22;11328;53.928;18.522;2023-04-24T12:40:18;21.20;99.90
22321;DHT22;11328;53.928;18.522;2023-04-24T12:42:48;21.20;99.90
22321;DHT22;11328;53.928;18.522;2023-04-24T12:45:17;21.30;99.90
22321;DHT22;11328;53.928;18.522;2023-04-24T12:47:46;21.40;99.90
22321;DHT22;11328;53.928;18.522;2023-04-24T12:50:15;21.40;99.90
22321;DHT22;11328;53.928;18.522;2023-04-24T12:52:44;21.50;99.90
22321;DHT22;11328;53.928;18.522;2023-04-24T12:55:11;21.60;99.90
22321;DHT22;11328;53.928;18.522;2023-04-24T12:57:39;21.60;99.90
22321;DHT22;11328;53.928;18.522;2023-04-24T13:00:08;21.70;99.90
22321;DHT22;11328;53.928;18.522;2023-04-24T13:02:39;21.90;99.90
22321;DHT22;11328;53.928;18.522;2023-04-24T13:05:06;21.80;99.90
22321;DHT22;11328;53.928;18.522;2023-04-24T13:07:34;21.80;99.90
22321;DHT22;11328;53.928;18.522;2023-04-24T13:10:01;21.80;99.90
22321;DHT22;11328;53.928;18.522;2023-04-24T13:12:28;21.90;99.90
22321;DHT22;11328;53.928;18.522;2023-04-24T13:14:56;21.90;99.90
22321;DHT22;11328;53.928;18.522;2023-04-24T13:17:25;21.90;99.90
22321;DHT22;11328;53.928;18.522;2023-04-24T13:19:54;22.00;99.90
22321;DHT22;11328;53.928;18.522;2023-04-24T13:22:22;22.00;99.90
22321;DHT22;11328;53.928;18.522;2023-04-24T13:24:49;22.00;99.90
22321;DHT22;11328;53.928;18.522;2023-04-24T13:27:17;22.10;99.90
22321;DHT22;11328;53.928;18.522;2023-04-24T13:29:45;22.20;99.90
22321;DHT22;11328;53.928;18.522;2023-04-24T13:32:13;22.30;99.90
22321;DHT22;11328;53.928;18.522;2023-04-24T13:34:40;22.30;99.90
22321;DHT22;11328;53.928;18.522;2023-04-24T13:37:07;22.40;99.90
22321;DHT22;11328;53.928;18.522;2023-04-24T13:39:35;22.50;99.90
22321;DHT22;11328;53.928;18.522;2023-04-24T13:42:02;22.40;99.90
22321;DHT22;11328;53.928;18.522;2023-04-24T13:44:31;22.40;99.90
22321;DHT22;11328;53.928;18.522;2023-04-24T13:47:00;22.30;99.90
22321;DHT22;11328;53.928;18.522;2023-04-24T13:49:27;22.40;99.90
22321;DHT22;11328;53.928;18.522;2023-04-24T13:51:55;22.40;99.90
22321;DHT22;11328;53.928;18.522;2023-04-24T13:54:23;22.50;99.90
22321;DHT22;11328;53.928;18.522;2023-04-24T13:56:52;22.50;99.90
22321;DHT22;11328;53.928;18.522;2023-04-24T13:59:22;22.40;99.90
22321;DHT22;11328;53.928;18.522;2023-04-24T14:01:49;22.40;99.90
22321;DHT22;11328;53.928;18.522;2023-04-24T14:04:18;22.30;99.90
22321;DHT22;11328;53.928;18.522;2023-04-24T14:06:46;22.20;99.90
22321;DHT22;11328;53.928;18.522;2023-04-24T14:09:13;22.10;99.90
22321;DHT22;11328;53.928;18.522;2023-04-24T14:11:40;22.00;99.90
22321;DHT22;11328;53.928;18.522;2023-04-24T14:14:07;21.90;99.90
22321;DHT22;11328;53.928;18.522;2023-04-24T14:16:35;21.80;99.90
22321;DHT22;11328;53.928;18.522;2023-04-24T14:19:02;21.60;99.00
22321;DHT22;11328;53.928;18.522;2023-04-24T14:21:29;21.50;99.00
22321;DHT22;11328;53.928;18.522;2023-04-24T14:23:57;21.30;98.90
22321;DHT22;11328;53.928;18.522;2023-04-24T14:26:27;21.20;99.30
22321;DHT22;11328;53.928;18.522;2023-04-24T14:28:54;21.10;99.40
22321;DHT22;11328;53.928;18.522;2023-04-24T14:31:36;21.10;99.50
22321;DHT22;11328;53.928;18.522;2023-04-24T14:34:04;21.00;99.80
22321;DHT22;11328;53.928;18.522;2023-04-24T14:36:31;21.00;99.60
22321;DHT22;11328;53.928;18.522;2023-04-24T14:39:01;20.90;98.90
22321;DHT22;11328;53.928;18.522;2023-04-24T14:41:33;20.80;99.00
22321;DHT22;11328;53.928;18.522;2023-04-24T14:44:04;20.90;99.50
22321;DHT22;11328;53.928;18.522;2023-04-24T14:46:31;21.00;99.90
22321;DHT22;11328;53.928;18.522;2023-04-24T14:48:58;21.10;99.90
22321;DHT22;11328;53.928;18.522;2023-04-24T14:51:26;21.30;99.80
22321;DHT22;11328;53.928;18.522;2023-04-24T14:53:53;21.30;99.40
22321;DHT22;11328;53.928;18.522;2023-04-24T14:56:20;21.40;99.80
22321;DHT22;11328;53.928;18.522;2023-04-24T14:58:47;21.50;99.90
22321;DHT22;11328;53.928;18.522;2023-04-24T15:01:14;21.60;99.90
22321;DHT22;11328;53.928;18.522;2023-04-24T15:03:43;21.80;99.90
22321;DHT22;11328;53.928;18.522;2023-04-24T15:06:11;21.90;99.70
22321;DHT22;11328;53.928;18.522;2023-04-24T15:08:38;22.00;99.40
22321;DHT22;11328;53.928;18.522;2023-04-24T15:11:05;22.10;98.80
22321;DHT22;11328;53.928;18.522;2023-04-24T15:13:33;22.10;98.50
22321;DHT22;11328;53.928;18.522;2023-04-24T15:16:00;22.10;98.50
22321;DHT22;11328;53.928;18.522;2023-04-24T15:18:28;22.00;98.50
22321;DHT22;11328;53.928;18.522;2023-04-24T15:20:56;21.90;98.20
22321;DHT22;11328;53.928;18.522;2023-04-24T15:23:23;21.80;98.30
22321;DHT22;11328;53.928;18.522;2023-04-24T15:25:50;21.70;97.70
22321;DHT22;11328;53.928;18.522;2023-04-24T15:28:17;21.50;97.60
22321;DHT22;11328;53.928;18.522;2023-04-24T15:30:44;21.50;97.90
22321;DHT22;11328;53.928;18.522;2023-04-24T15:33:11;21.40;97.50
22321;DHT22;11328;53.928;18.522;2023-04-24T15:35:39;21.30;96.90
22321;DHT22;11328;53.928;18.522;2023-04-24T15:38:07;21.20;97.50
22321;DHT22;11328;53.928;18.522;2023-04-24T15:40:34;21.20;97.50
22321;DHT22;11328;53.928;18.522;2023-04-24T15:43:02;21.10;97.40
22321;DHT22;11328;53.928;18.522;2023-04-24T15:45:29;21.20;97.90
22321;DHT22;11328;53.928;18.522;2023-04-24T15:47:56;21.20;98.20